Weather Underground History page Text

Daily Summary for October 22, 2017 Units:  English    Metric   Both
« Previous Day
Next Day »
Daily Weekly Monthly Yearly Custom
  Current: High: Low: Average:
Temperature: 77.7 °F 78.4 °F 77.1 °F 77.6 °F
Dew Point: 74.6 °F 74.6 °F 72.9 °F 73.9 °F
Humidity: 90 % 90 % 87 % 88 %
Wind Speed: 2.0 mph 15.0 mph 0.0 mph 4.9 mph
Wind Gust: 7.0 mph 15.0 mph - -
Wind:East - - East
Pressure: 30.05 in 30.07 in 30.04 in -
Precipitation: 0.01 in      
Historical Graphs
 
 
Tabular Data for October 22, 2017
Time Temperature Dew Point Pressure Wind Wind Speed Wind Gust Humidity Rainfall Rate (Hourly) solar Conditions
02:15 77.7 °F 74.5 °F 30.07 in East 8.1 mph 8.1 mph 90 % 0.00 in 0.0 W/m2 CLR
02:16 77.5 °F 74.3 °F 30.07 in ESE 8.1 mph 8.1 mph 90 % 0.00 in 0.0 W/m2 CLR
02:18 77.6 °F 74.4 °F 30.07 in ENE 6.9 mph 6.9 mph 90 % 0.00 in 0.0 W/m2 CLR
02:23 77.6 °F 74.4 °F 30.06 in East 8.1 mph 8.1 mph 90 % 0.00 in 0.0 W/m2 CLR
02:28 77.6 °F 74.4 °F 30.06 in East 9.2 mph 9.2 mph 90 % 0.00 in 0.0 W/m2 CLR
02:37 77.5 °F 74.0 °F 30.06 in East 9.2 mph 9.2 mph 89 % 0.00 in 0.0 W/m2 CLR
02:42 77.5 °F 74.0 °F 30.06 in East 6.9 mph 6.9 mph 89 % 0.00 in 0.0 W/m2 CLR
02:50 77.5 °F 74.0 °F 30.06 in East 5.0 mph 9.0 mph 89 % 0.00 in 0.0 W/m2 OVC
02:55 77.6 °F 74.1 °F 30.05 in ENE 10.4 mph 10.4 mph 89 % 0.00 in 0.0 W/m2 CLR
03:00 77.6 °F 74.1 °F 30.05 in ENE 8.1 mph 8.1 mph 89 % 0.00 in 0.0 W/m2 CLR
03:05 77.6 °F 74.1 °F 30.05 in East 8.1 mph 8.1 mph 89 % 0.00 in 0.0 W/m2 CLR
03:10 77.6 °F 74.1 °F 30.05 in East 5.0 mph 12.0 mph 89 % 0.00 in 0.0 W/m2 OVC
03:15 77.6 °F 73.8 °F 30.05 in East 5.0 mph 13.0 mph 88 % 0.00 in 0.0 W/m2 OVC
03:20 77.7 °F 73.9 °F 30.05 in ESE 5.8 mph 5.8 mph 88 % 0.00 in 0.0 W/m2 CLR
03:25 77.8 °F 74.0 °F 30.05 in East 5.0 mph 5.0 mph 88 % 0.00 in 0.0 W/m2 CLR
03:30 77.9 °F 74.1 °F 30.05 in East 8.0 mph 8.0 mph 88 % 0.00 in 0.0 W/m2 CLR
03:35 78.0 °F 74.2 °F 30.05 in East 6.0 mph 6.0 mph 88 % 0.00 in 0.0 W/m2 CLR
03:40 78.1 °F 74.3 °F 30.05 in East 3.5 mph 4.0 mph 88 % 0.00 in 0.0 W/m2 CLR
03:45 78.2 °F 74.4 °F 30.05 in East 6.9 mph 6.9 mph 88 % 0.00 in 0.0 W/m2 CLR
03:50 78.3 °F 74.5 °F 30.05 in East 7.0 mph 7.0 mph 88 % 0.00 in 0.0 W/m2 CLR
03:55 78.3 °F 74.5 °F 30.05 in East 5.0 mph 5.0 mph 88 % 0.00 in 0.0 W/m2 CLR
04:00 78.4 °F 74.5 °F 30.05 in ESE 15.0 mph 15.0 mph 88 % 0.00 in 0.0 W/m2 CLR
04:05 78.4 °F 74.2 °F 30.05 in SE 9.0 mph 9.0 mph 87 % 0.01 in 0.0 W/m2 RA
04:15 78.2 °F 74.0 °F 30.04 in SE 3.0 mph 8.0 mph 87 % 0.01 in 0.0 W/m2 RA
04:20 77.8 °F 73.7 °F 30.05 in ESE 1.0 mph 8.0 mph 87 % 0.00 in 0.0 W/m2 RA
04:25 77.7 °F 73.5 °F 30.05 in ESE 2.0 mph 5.0 mph 87 % 0.00 in 0.0 W/m2 OVC
04:30 77.6 °F 73.4 °F 30.05 in SE 2.0 mph 4.0 mph 87 % 0.00 in 0.0 W/m2 OVC
04:35 77.5 °F 73.7 °F 30.05 in ESE 2.0 mph 8.0 mph 88 % 0.00 in 0.0 W/m2 OVC
04:40 77.5 °F 73.7 °F 30.05 in East 2.0 mph 4.0 mph 88 % 0.00 in 0.0 W/m2 OVC
04:45 77.4 °F 73.6 °F 30.05 in East 2.0 mph 7.0 mph 88 % 0.00 in 0.0 W/m2 OVC
04:50 77.3 °F 73.5 °F 30.05 in East 1.0 mph 6.0 mph 88 % 0.00 in 0.0 W/m2 OVC
04:55 77.2 °F 73.0 °F 30.04 in ESE 1.0 mph 3.0 mph 87 % 0.00 in 0.0 W/m2 OVC
05:05 77.1 °F 72.9 °F 30.04 in East 3.5 mph 3.5 mph 87 % 0.01 in 0.0 W/m2
05:10 77.1 °F 73.3 °F 30.05 in East 3.0 mph 3.0 mph 88 % 0.00 in 0.0 W/m2 CLR
05:15 77.1 °F 73.3 °F 30.05 in Calm   3.0 mph 88 % 0.00 in 0.0 W/m2 OVC
05:20 77.2 °F 73.4 °F 30.05 in East 1.0 mph 3.0 mph 88 % 0.00 in 0.0 W/m2 OVC
05:25 77.2 °F 73.4 °F 30.05 in East 1.0 mph 3.0 mph 88 % 0.00 in 0.0 W/m2 OVC
05:30 77.3 °F 73.8 °F 30.05 in East 1.0 mph 2.0 mph 89 % 0.00 in 0.0 W/m2 OVC
05:35 77.4 °F 73.9 °F 30.05 in East 2.0 mph 3.0 mph 89 % 0.00 in 0.0 W/m2 OVC
05:40 77.6 °F 74.4 °F 30.05 in East 3.0 mph 7.0 mph 90 % 0.00 in 0.0 W/m2 OVC
05:45 77.7 °F 74.6 °F 30.05 in East 2.0 mph 7.0 mph 90 % 0.00 in 0.0 W/m2 OVC
Treasure Coast Weather
Compliments of Weather Underground - 1.5 mb

Script developed by  Jim McMurry - jmcmurry@mwt.net Adapted for the template by  Wim van der Kuil - Leuven-Template.eu

You find our weather info also at:

WeatherCloud

Weather Underground

Southeastern Weather Network

Citizen Weather Observer Program (CWOP)

HAMweather, WeatherForYou, PWS Weather

Anything Weather